Warning: fopen(/var/www/metroair/shared/private/wxdata/metar/AVWX/metar_KAMA): failed to open stream: Permission denied in /var/www/metroair/shared/private/library/orig_library/lib_airport.php on line 346

Warning: fwrite() expects parameter 1 to be resource, boolean given in /var/www/metroair/shared/private/library/orig_library/lib_airport.php on line 347

Warning: fclose() expects parameter 1 to be resource, boolean given in /var/www/metroair/shared/private/library/orig_library/lib_airport.php on line 348

Warning: fopen(/var/www/metroair/shared/private/wxdata/TAF/AVWX/taf_KAMA): failed to open stream: Permission denied in /var/www/metroair/shared/private/library/orig_library/lib_airport.php on line 533

Warning: fwrite() expects parameter 1 to be resource, boolean given in /var/www/metroair/shared/private/library/orig_library/lib_airport.php on line 534

Warning: fclose() expects parameter 1 to be resource, boolean given in /var/www/metroair/shared/private/library/orig_library/lib_airport.php on line 535

MET2568 - Amarillo to Kansas City

Bombardier Dash-8-Q200
838AH
1 hr 45 mins
414 nm
Scheduled - Daily

Bid/PiRep Status

Bid was submitted on Oct 04 2016.

PiRep # 73570: Approved by Dave Nichols on October 5th, 2016 2:40 UTC

Departure

Departing from
Amarillo (AMA)
Departure gate
A2
Scheduled Departure
GMT 0115
Local 1915
METAR KAMA 221353Z 30014KT 10SM CLR 01/00 A2984 RMK AO2 SLP105 T00110000
TAF KAMA 221212Z 2212/2312 33016KT P6SM SCT200 FM222300 VRB06KT P6SM BKN200
  • No charts available

Arrival

Arriving at
Kansas City (MCI)
Arrival gate
Scheduled Arrival
GMT 0300
Local 2100
METAR KMCI 221353Z COR 36013KT 9SM FEW045 BKN075 OVC130 07/03 A2963 RMK AO2 SLP033 T00670033 $
TAF KMCI 221120Z 2212/2312 02009KT P6SM BKN060 FM221800 35012G20KT P6SM BKN100 FM222200 33011KT P6SM OVC050 TEMPO 2223/2303 OVC025 FM230600 33006KT P6SM BKN250

Route Map

Planning Resources

PNH J26 ICT CNU.JHAWK6
PHN GAG ICT FRACA KMCI
KAMA BROKE ICT FRACA KMCI
KAMA-PNH-GAG-ICT-FOE-KMCI
KAMA UKDEW V12 EMP.JHAWK6 KMCI
Route:
OFP Layout:
Units:
Detailed Navlog:
ETOPS Planning:
Plan Stepclimbs:
Runway Analysis:
Include NOTAMS:
FIR NOTAMS:
Flight Maps:

Return Flights

MET2563
Bombardier Dash-8-Q200
1200 GMT
MET2565
Bombardier Dash-8-Q200
1810 GMT
MET2567
Bombardier Dash-8-Q200
2310 GMT

Popularity

Hub Current Bids PiReps this month Total PiReps
KMCI 0 0 8
KLAX 0 0 0
KBOS 0 0 0